Latest Weather Observations for Little Bay

IDN60801

Issued at 3:32 pm EDT Thursday 13 December 2018 (issued every 10 minutes, with the page automatically refreshed every 10 minutes)

About weather observations | Map of weather stations | Latest weather observations for NSW | Other Formats
Station Details ID: 066051 Name: LITTLE BAY (THE COAST GOLF CLUB) Lat: -33.98 Lon: 151.25 Height: 22.0 m
Data from the previous 72 hours. | See also: Recent months for locations in New South Wales
Date/Time
EDT
Temp
°C
App
Temp
°C
Dew
Point
°C
Rel
Hum
%
Delta-T
°C
Wind Press
QNH
hPa
Press
MSL
hPa
Rain since
9am
mm
Dir  Spd
km/h
Gust
km/h
Spd
kts
Gust
kts
13/03:30pm - - - - - NE 26 33 14 18 - - -
13/03:00pm - - - - - NNE 28 35 15 19 - - -
13/02:30pm - - - - - NNE 28 37 15 20 - - -
13/02:00pm - - - - - NNE 28 37 15 20 - - -
13/01:30pm - - - - - NNE 24 33 13 18 - - -
13/01:00pm - - - - - NNE 26 39 14 21 - - -
13/12:30pm - - - - - N 20 32 11 17 - - -
13/12:00pm - - - - - N 19 30 10 16 - - -
13/11:30am - - - - - NNE 20 32 11 17 - - -
13/11:00am - - - - - NNE 22 28 12 15 - - -
13/10:30am - - - - - NNE 22 32 12 17 - - -
13/10:00am - - - - - NNE 19 28 10 15 - - -
13/09:30am - - - - - N 15 24 8 13 - - -
13/09:00am - - - - - NNE 17 24 9 13 - - -
13/08:30am - - - - - N 20 28 11 15 - - -
13/08:00am - - - - - NNE 19 26 10 14 - - -
13/07:30am - - - - - N 17 26 9 14 - - -
13/07:00am - - - - - N 17 26 9 14 - - -
13/06:30am - - - - - NNE 15 24 8 13 - - -
13/06:00am - - - - - NNE 24 33 13 18 - - -
13/05:30am - - - - - NNE 24 30 13 16 - - -
13/05:00am - - - - - NNE 17 24 9 13 - - -
13/04:30am - - - - - NNE 13 17 7 9 - - -
13/04:00am - - - - - N 9 13 5 7 - - -
13/03:30am - - - - - N 7 11 4 6 - - -
13/03:00am - - - - - NNE 15 20 8 11 - - -
13/02:30am - - - - - NNE 20 28 11 15 - - -
13/02:00am - - - - - NE 15 20 8 11 - - -
13/01:30am - - - - - NNE 15 19 8 10 - - -
13/01:00am - - - - - NE 19 24 10 13 - - -
13/12:30am - - - - - NNE 17 22 9 12 - - -
13/12:00am - - - - - NNE 22 28 12 15 - - -
 
Date/Time
EDT
Temp
°C
App
Temp
°C
Dew
Point
°C
Rel
Hum
%
Delta-T
°C
Wind Press
QNH
hPa
Press
MSL
hPa
Rain since
9am
mm
Dir  Spd
km/h
Gust
km/h
Spd
kts
Gust
kts
12/11:30pm - - - - - NNE 24 32 13 17 - - -
12/11:00pm - - - - - NNE 22 28 12 15 - - -
12/10:30pm - - - - - NNE 19 26 10 14 - - -
12/10:00pm - - - - - NNE 24 32 13 17 - - -
12/09:30pm - - - - - NNE 20 26 11 14 - - -
12/09:00pm - - - - - NNE 20 28 11 15 - - -
12/08:30pm - - - - - NNE 19 24 10 13 - - -
12/08:00pm - - - - - NNE 19 26 10 14 - - -
12/07:30pm - - - - - NNE 15 19 8 10 - - -
12/07:00pm - - - - - NNE 15 19 8 10 - - -
12/06:30pm - - - - - N 13 17 7 9 - - -
12/06:00pm - - - - - NNE 19 24 10 13 - - -
12/05:30pm - - - - - NNE 19 26 10 14 - - -
12/05:00pm - - - - - NNE 20 28 11 15 - - -
12/04:30pm - - - - - NNE 22 30 12 16 - - -
12/04:00pm - - - - - NE 17 24 9 13 - - -
12/03:30pm - - - - - NE 19 26 10 14 - - -
12/03:00pm - - - - - NE 17 24 9 13 - - -
12/02:30pm - - - - - NE 13 20 7 11 - - -
12/02:00pm - - - - - NE 13 17 7 9 - - -
12/01:30pm - - - - - ENE 13 19 7 10 - - -
12/01:00pm - - - - - ENE 13 19 7 10 - - -
12/12:30pm - - - - - ENE 13 17 7 9 - - -
12/12:00pm - - - - - NE 11 19 6 10 - - -
12/11:30am - - - - - NNE 15 22 8 12 - - -
12/11:00am - - - - - NE 13 20 7 11 - - -
12/10:30am - - - - - NE 11 15 6 8 - - -
12/10:00am - - - - - NNE 20 28 11 15 - - -
12/09:30am - - - - - ENE 15 19 8 10 - - -
12/09:00am - - - - - E 15 17 8 9 - - -
12/08:30am - - - - - E 13 15 7 8 - - -
12/08:00am - - - - - ESE 11 13 6 7 - - -
12/07:30am - - - - - ESE 9 11 5 6 - - -
12/07:00am - - - - - ESE 9 15 5 8 - - -
12/06:30am - - - - - ESE 9 13 5 7 - - -
12/06:00am - - - - - ESE 13 15 7 8 - - -
12/05:30am - - - - - ESE 11 13 6 7 - - -
12/05:00am - - - - - S 6 9 3 5 - - -
12/04:30am - - - - - SSW 6 7 3 4 - - -
12/04:00am - - - - - S 4 6 2 3 - - -
12/03:30am - - - - - S 4 4 2 2 - - -
12/03:00am - - - - - S 4 6 2 3 - - -
12/02:30am - - - - - SSE 4 6 2 3 - - -
12/02:00am - - - - - ESE 6 7 3 4 - - -
12/01:30am - - - - - SE 6 7 3 4 - - -
12/01:00am - - - - - ESE 7 9 4 5 - - -
12/12:30am - - - - - S 4 4 2 2 - - -
12/12:00am - - - - - E 2 4 1 2 - - -
 
Date/Time
EDT
Temp
°C
App
Temp
°C
Dew
Point
°C
Rel
Hum
%
Delta-T
°C
Wind Press
QNH
hPa
Press
MSL
hPa
Rain since
9am
mm
Dir  Spd
km/h
Gust
km/h
Spd
kts
Gust
kts
11/11:30pm - - - - - ESE 4 6 2 3 - - -
11/11:00pm - - - - - E 6 9 3 5 - - -
11/10:30pm - - - - - E 9 11 5 6 - - -
11/10:00pm - - - - - E 11 15 6 8 - - -
11/09:30pm - - - - - ESE 9 13 5 7 - - -
11/09:00pm - - - - - SSE 9 11 5 6 - - -
11/08:30pm - - - - - SSE 9 11 5 6 - - -
11/08:00pm - - - - - SE 7 9 4 5 - - -
11/07:30pm - - - - - SE 7 9 4 5 - - -
11/07:00pm - - - - - ESE 7 9 4 5 - - -
11/06:30pm - - - - - ESE 7 9 4 5 - - -
11/06:00pm - - - - - SE 7 11 4 6 - - -
11/05:30pm - - - - - ESE 7 9 4 5 - - -
11/05:00pm - - - - - ESE 9 13 5 7 - - -
11/04:30pm - - - - - SE 9 11 5 6 - - -
11/04:00pm - - - - - SE 9 11 5 6 - - -
11/03:30pm - - - - - SE 9 11 5 6 - - -
11/03:00pm - - - - - SSE 11 13 6 7 - - -
11/02:30pm - - - - - SE 9 13 5 7 - - -
11/02:00pm - - - - - SSE 15 17 8 9 - - -
11/01:30pm - - - - - S 13 17 7 9 - - -
11/01:00pm - - - - - SSE 13 17 7 9 - - -
11/12:30pm - - - - - SSE 15 19 8 10 - - -
11/12:00pm - - - - - SSE 15 17 8 9 - - -
11/11:30am - - - - - SSE 15 19 8 10 - - -
11/11:00am - - - - - S 15 19 8 10 - - -
11/10:30am - - - - - SSE 15 19 8 10 - - -
11/10:00am - - - - - SSE 15 19 8 10 - - -
11/09:30am - - - - - SSE 13 17 7 9 - - -
11/09:00am - - - - - SSE 13 17 7 9 - - -
11/08:30am - - - - - SSE 13 20 7 11 - - -
11/08:00am - - - - - SSE 15 19 8 10 - - -
11/07:30am - - - - - SSE 15 20 8 11 - - -
11/07:00am - - - - - SSE 15 20 8 11 - - -
11/06:30am - - - - - SSE 15 19 8 10 - - -
11/06:00am - - - - - SSE 17 24 9 13 - - -
11/05:30am - - - - - SSE 17 22 9 12 - - -
11/05:00am - - - - - SSE 19 28 10 15 - - -
11/04:30am - - - - - SSE 22 30 12 16 - - -
11/04:00am - - - - - SSE 17 24 9 13 - - -
11/03:30am - - - - - S 13 20 7 11 - - -
11/03:00am - - - - - SSE 15 20 8 11 - - -
11/02:30am - - - - - SSE 15 20 8 11 - - -
11/02:00am - - - - - S 15 20 8 11 - - -
11/01:30am - - - - - S 17 22 9 12 - - -
11/01:00am - - - - - S 19 26 10 14 - - -
11/12:30am - - - - - S 15 22 8 12 - - -
11/12:00am - - - - - S 19 28 10 15 - - -
 
Date/Time
EDT
Temp
°C
App
Temp
°C
Dew
Point
°C
Rel
Hum
%
Delta-T
°C
Wind Press
QNH
hPa
Press
MSL
hPa
Rain since
9am
mm
Dir  Spd
km/h
Gust
km/h
Spd
kts
Gust
kts
10/11:30pm - - - - - S 20 26 11 14 - - -
10/11:00pm - - - - - S 20 28 11 15 - - -
10/10:30pm - - - - - S 19 26 10 14 - - -
10/10:00pm - - - - - S 20 28 11 15 - - -
10/09:30pm - - - - - S 22 33 12 18 - - -
10/09:00pm - - - - - SSE 20 30 11 16 - - -
10/08:30pm - - - - - S 26 33 14 18 - - -
10/08:00pm - - - - - SSW 19 26 10 14 - - -
10/07:30pm - - - - - SSW 17 24 9 13 - - -
10/07:00pm - - - - - SSW 22 32 12 17 - - -
10/06:30pm - - - - - SSW 20 28 11 15 - - -
10/06:00pm - - - - - SSW 15 22 8 12 - - -
10/05:30pm - - - - - NE 4 6 2 3 - - -
10/05:00pm - - - - - NE 11 15 6 8 - - -
10/04:30pm - - - - - NNE 11 19 6 10 - - -
10/04:00pm - - - - - NNE 11 15 6 8 - - -

Other Formats:

Comma delimited format used in spreadsheet applications
http://www.bom.gov.au/fwo/IDN60801/IDN60801.94780.axf

JavaScript Object Notation format (JSON) in row-major order
http://www.bom.gov.au/fwo/IDN60801/IDN60801.94780.json